sensor_id;sensor_type;location;lat;lon;timestamp;pressure;altitude;pressure_sealevel;temperature;humidity
42691;BME280;28306;55.744;37.578;2022-09-23T00:00:28;99664.88;;;21.65;44.31
42691;BME280;28306;55.744;37.578;2022-09-23T00:02:53;99660.53;;;21.64;44.69
42691;BME280;28306;55.744;37.578;2022-09-23T00:05:19;99643.38;;;21.58;44.62
42691;BME280;28306;55.744;37.578;2022-09-23T00:07:44;99669.31;;;21.71;44.77
42691;BME280;28306;55.744;37.578;2022-09-23T00:10:10;99665.56;;;21.72;44.79
42691;BME280;28306;55.744;37.578;2022-09-23T00:12:36;99671.53;;;21.74;44.22
42691;BME280;28306;55.744;37.578;2022-09-23T00:15:03;99658.97;;;21.68;44.42
42691;BME280;28306;55.744;37.578;2022-09-23T00:17:30;99649.44;;;21.66;44.49
42691;BME280;28306;55.744;37.578;2022-09-23T00:19:56;99665.56;;;21.72;44.55
42691;BME280;28306;55.744;37.578;2022-09-23T00:22:21;99662.59;;;21.74;44.42
42691;BME280;28306;55.744;37.578;2022-09-23T00:24:47;99676.41;;;21.72;44.52
42691;BME280;28306;55.744;37.578;2022-09-23T00:27:13;99667.44;;;21.72;44.53
42691;BME280;28306;55.744;37.578;2022-09-23T00:29:38;99674.75;;;21.71;44.72
42691;BME280;28306;55.744;37.578;2022-09-23T00:32:04;99671.47;;;21.69;44.72
42691;BME280;28306;55.744;37.578;2022-09-23T00:34:30;99671.22;;;21.71;44.58
42691;BME280;28306;55.744;37.578;2022-09-23T00:36:56;99673.09;;;21.70;44.55
42691;BME280;28306;55.744;37.578;2022-09-23T00:39:22;99670.38;;;21.70;44.68
42691;BME280;28306;55.744;37.578;2022-09-23T00:41:48;99676.88;;;21.69;44.54
42691;BME280;28306;55.744;37.578;2022-09-23T00:44:40;99676.41;;;21.72;44.70
42691;BME280;28306;55.744;37.578;2022-09-23T00:47:17;99671.22;;;21.71;44.71
42691;BME280;28306;55.744;37.578;2022-09-23T00:49:46;99675.47;;;21.67;44.60
42691;BME280;28306;55.744;37.578;2022-09-23T00:52:16;99670.28;;;21.65;44.61
42691;BME280;28306;55.744;37.578;2022-09-23T00:54:45;99677.94;;;21.68;44.73
42691;BME280;28306;55.744;37.578;2022-09-23T00:57:14;99680.06;;;21.66;44.54
42691;BME280;28306;55.744;37.578;2022-09-23T00:59:41;99685.50;;;21.66;44.74
42691;BME280;28306;55.744;37.578;2022-09-23T01:02:07;99687.34;;;21.66;44.74
42691;BME280;28306;55.744;37.578;2022-09-23T01:04:35;99685.25;;;21.68;44.73
42691;BME280;28306;55.744;37.578;2022-09-23T01:07:01;99682.78;;;21.66;44.85
42691;BME280;28306;55.744;37.578;2022-09-23T01:09:27;99688.75;;;21.68;44.85
42691;BME280;28306;55.744;37.578;2022-09-23T01:17:35;99688.59;;;21.75;44.51
42691;BME280;28306;55.744;37.578;2022-09-23T01:31:51;99682.88;;;21.71;44.70
42691;BME280;28306;55.744;37.578;2022-09-23T01:34:30;99681.22;;;21.70;44.67
42691;BME280;28306;55.744;37.578;2022-09-23T01:37:06;99682.78;;;21.66;44.72
42691;BME280;28306;55.744;37.578;2022-09-23T01:39:37;99683.59;;;21.67;44.81
42691;BME280;28306;55.744;37.578;2022-09-23T01:42:16;99694.41;;;21.67;44.65
42691;BME280;28306;55.744;37.578;2022-09-23T01:44:57;99695.00;;;21.69;44.65
42691;BME280;28306;55.744;37.578;2022-09-23T01:47:30;99679.38;;;21.59;44.83
42691;BME280;28306;55.744;37.578;2022-09-23T01:50:03;99685.63;;;21.59;44.63
42691;BME280;28306;55.744;37.578;2022-09-23T01:52:51;99691.03;;;21.59;44.55
42691;BME280;28306;55.744;37.578;2022-09-23T01:55:23;99687.59;;;21.64;44.91
42691;BME280;28306;55.744;37.578;2022-09-23T01:57:59;99699.28;;;21.65;44.74
42691;BME280;28306;55.744;37.578;2022-09-23T02:00:29;99693.25;;;21.63;44.87
42691;BME280;28306;55.744;37.578;2022-09-23T02:03:10;99686.09;;;21.56;44.75
42691;BME280;28306;55.744;37.578;2022-09-23T02:05:55;99689.25;;;21.65;44.94
42691;BME280;28306;55.744;37.578;2022-09-23T02:08:24;99693.22;;;21.74;44.61
42691;BME280;28306;55.744;37.578;2022-09-23T02:10:57;99699.03;;;21.66;44.66
42691;BME280;28306;55.744;37.578;2022-09-23T02:14:07;99690.25;;;21.76;44.53
42691;BME280;28306;55.744;37.578;2022-09-23T02:16:25;99697.22;;;21.72;44.78
42691;BME280;28306;55.744;37.578;2022-09-23T02:18:57;99681.59;;;21.62;44.96
42691;BME280;28306;55.744;37.578;2022-09-23T02:21:31;99697.94;;;21.67;44.86
42691;BME280;28306;55.744;37.578;2022-09-23T02:24:16;99689.19;;;21.77;44.74
42691;BME280;28306;55.744;37.578;2022-09-23T02:26:50;99691.81;;;21.72;44.68
42691;BME280;28306;55.744;37.578;2022-09-23T02:29:32;99689.34;;;21.70;44.73
42691;BME280;28306;55.744;37.578;2022-09-23T02:40:00;99693.00;;;21.64;44.79
42691;BME280;28306;55.744;37.578;2022-09-23T02:42:51;99689.00;;;21.67;44.74
42691;BME280;28306;55.744;37.578;2022-09-23T02:45:20;99689.50;;;21.64;44.72
42691;BME280;28306;55.744;37.578;2022-09-23T02:47:48;99687.84;;;21.63;44.85
42691;BME280;28306;55.744;37.578;2022-09-23T02:50:16;99684.06;;;21.64;44.95
42691;BME280;28306;55.744;37.578;2022-09-23T02:52:44;99683.16;;;21.58;45.00
42691;BME280;28306;55.744;37.578;2022-09-23T02:55:14;99683.75;;;21.60;45.00
42691;BME280;28306;55.744;37.578;2022-09-23T02:57:41;99681.84;;;21.60;44.91
42691;BME280;28306;55.744;37.578;2022-09-23T03:00:07;99679.38;;;21.59;44.93
42691;BME280;28306;55.744;37.578;2022-09-23T03:05:18;99678.66;;;21.64;44.87
42691;BME280;28306;55.744;37.578;2022-09-23T03:18:32;99689.25;;;21.65;44.87
42691;BME280;28306;55.744;37.578;2022-09-23T03:21:06;99691.72;;;21.67;44.88
42691;BME280;28306;55.744;37.578;2022-09-23T03:23:35;99688.75;;;21.68;44.73
42691;BME280;28306;55.744;37.578;2022-09-23T03:26:30;99683.50;;;21.62;45.00
42691;BME280;28306;55.744;37.578;2022-09-23T03:28:56;99696.66;;;21.70;44.91
42691;BME280;28306;55.744;37.578;2022-09-23T03:31:23;99676.75;;;21.64;44.58
42691;BME280;28306;55.744;37.578;2022-09-23T03:33:56;99693.47;;;21.73;44.89
42691;BME280;28306;55.744;37.578;2022-09-23T03:36:28;99692.03;;;21.70;44.90
42691;BME280;28306;55.744;37.578;2022-09-23T03:41:51;99702.53;;;21.67;44.44
42691;BME280;28306;55.744;37.578;2022-09-23T03:44:19;99687.09;;;21.67;44.83
42691;BME280;28306;55.744;37.578;2022-09-23T03:46:45;99680.88;;;21.67;44.74
42691;BME280;28306;55.744;37.578;2022-09-23T03:49:22;99665.28;;;21.57;44.80
42691;BME280;28306;55.744;37.578;2022-09-23T03:51:49;99683.34;;;21.68;44.70
42691;BME280;28306;55.744;37.578;2022-09-23T03:54:14;99668.88;;;21.63;44.80
42691;BME280;28306;55.744;37.578;2022-09-23T03:56:40;99680.41;;;21.70;44.85
42691;BME280;28306;55.744;37.578;2022-09-23T03:59:06;99686.06;;;21.68;44.72
42691;BME280;28306;55.744;37.578;2022-09-23T04:01:32;99646.69;;;21.49;44.63
42691;BME280;28306;55.744;37.578;2022-09-23T04:03:57;99667.03;;;21.63;44.62
42691;BME280;28306;55.744;37.578;2022-09-23T04:06:24;99669.00;;;21.68;44.65
42691;BME280;28306;55.744;37.578;2022-09-23T04:08:49;99664.88;;;21.65;44.52
42691;BME280;28306;55.744;37.578;2022-09-23T04:11:15;99671.72;;;21.68;44.79
42691;BME280;28306;55.744;37.578;2022-09-23T04:13:41;99674.97;;;21.70;44.71
42691;BME280;28306;55.744;37.578;2022-09-23T04:16:06;99666.28;;;21.68;44.70
42691;BME280;28306;55.744;37.578;2022-09-23T04:18:32;99659.56;;;21.70;44.84
42691;BME280;28306;55.744;37.578;2022-09-23T04:20:58;99670.97;;;21.72;44.85
42691;BME280;28306;55.744;37.578;2022-09-23T04:23:27;99668.28;;;21.72;44.75
42691;BME280;28306;55.744;37.578;2022-09-23T04:25:53;99663.91;;;21.71;44.65
42691;BME280;28306;55.744;37.578;2022-09-23T04:28:19;99674.81;;;21.76;44.79
42691;BME280;28306;55.744;37.578;2022-09-23T04:30:45;99662.84;;;21.72;44.60
42691;BME280;28306;55.744;37.578;2022-09-23T04:33:12;99669.16;;;21.78;44.58
42691;BME280;28306;55.744;37.578;2022-09-23T04:35:39;99669.97;;;21.78;44.60
42691;BME280;28306;55.744;37.578;2022-09-23T04:38:05;99655.63;;;21.78;44.64
42691;BME280;28306;55.744;37.578;2022-09-23T04:40:31;99658.09;;;21.80;44.64
42691;BME280;28306;55.744;37.578;2022-09-23T04:42:57;99643.75;;;21.79;44.63
42691;BME280;28306;55.744;37.578;2022-09-23T04:45:23;99642.66;;;21.80;44.57
42691;BME280;28306;55.744;37.578;2022-09-23T04:47:49;99636.44;;;21.80;44.42
42691;BME280;28306;55.744;37.578;2022-09-23T04:50:15;99616.22;;;21.70;44.55
42691;BME280;28306;55.744;37.578;2022-09-23T04:52:41;99632.06;;;21.78;44.49
42691;BME280;28306;55.744;37.578;2022-09-23T04:55:07;99621.41;;;21.72;44.62
42691;BME280;28306;55.744;37.578;2022-09-23T04:57:33;99628.06;;;21.81;44.50
42691;BME280;28306;55.744;37.578;2022-09-23T04:59:59;99624.44;;;21.75;44.60
42691;BME280;28306;55.744;37.578;2022-09-23T05:02:25;99637.84;;;21.82;44.42
42691;BME280;28306;55.744;37.578;2022-09-23T05:04:52;99634.53;;;21.80;44.47
42691;BME280;28306;55.744;37.578;2022-09-23T05:07:18;99640.88;;;21.86;44.41
42691;BME280;28306;55.744;37.578;2022-09-23T05:09:47;99644.97;;;21.88;44.35
42691;BME280;28306;55.744;37.578;2022-09-23T05:14:38;99635.44;;;21.86;44.26
42691;BME280;28306;55.744;37.578;2022-09-23T05:17:08;99646.97;;;21.93;44.33
42691;BME280;28306;55.744;37.578;2022-09-23T05:19:34;99639.63;;;21.93;44.17
42691;BME280;28306;55.744;37.578;2022-09-23T05:21:59;99631.19;;;21.90;44.25
42691;BME280;28306;55.744;37.578;2022-09-23T05:24:25;99634.47;;;21.92;44.30
42691;BME280;28306;55.744;37.578;2022-09-23T05:26:51;99628.56;;;21.95;44.20
42691;BME280;28306;55.744;37.578;2022-09-23T05:29:18;99643.34;;;22.04;44.15
42691;BME280;28306;55.744;37.578;2022-09-23T05:31:44;99636.59;;;22.07;44.03
42691;BME280;28306;55.744;37.578;2022-09-23T05:34:09;99618.38;;;22.02;44.16
42691;BME280;28306;55.744;37.578;2022-09-23T05:36:35;99626.91;;;22.11;44.23
42691;BME280;28306;55.744;37.578;2022-09-23T05:39:02;99627.47;;;22.13;44.01
42691;BME280;28306;55.744;37.578;2022-09-23T05:41:28;99632.66;;;22.14;43.95
42691;BME280;28306;55.744;37.578;2022-09-23T05:43:54;99633.50;;;22.15;44.00
42691;BME280;28306;55.744;37.578;2022-09-23T05:46:23;99618.72;;;22.06;43.63
42691;BME280;28306;55.744;37.578;2022-09-23T05:48:49;99634.84;;;22.18;43.98
42691;BME280;28306;55.744;37.578;2022-09-23T05:51:18;99637.31;;;22.19;43.83
42691;BME280;28306;55.744;37.578;2022-09-23T05:53:44;99628.13;;;22.20;43.67
42691;BME280;28306;55.744;37.578;2022-09-23T05:56:12;99637.44;;;22.24;43.88
42691;BME280;28306;55.744;37.578;2022-09-23T05:58:38;99642.59;;;22.26;43.64
42691;BME280;28306;55.744;37.578;2022-09-23T06:01:12;99640.44;;;22.28;43.89
42691;BME280;28306;55.744;37.578;2022-09-23T06:03:38;99629.53;;;22.23;43.52
42691;BME280;28306;55.744;37.578;2022-09-23T06:06:05;99636.47;;;22.30;43.46
42691;BME280;28306;55.744;37.578;2022-09-23T06:08:31;99644.34;;;22.32;43.60
42691;BME280;28306;55.744;37.578;2022-09-23T06:11:03;99643.25;;;22.33;43.55
42691;BME280;28306;55.744;37.578;2022-09-23T06:13:34;99638.69;;;22.34;43.58
42691;BME280;28306;55.744;37.578;2022-09-23T06:16:12;99640.31;;;22.35;43.73
42691;BME280;28306;55.744;37.578;2022-09-23T06:18:40;99628.22;;;22.25;43.40
42691;BME280;28306;55.744;37.578;2022-09-23T06:21:07;99627.16;;;22.26;43.44
42691;BME280;28306;55.744;37.578;2022-09-23T06:23:34;99633.50;;;22.32;43.67
42691;BME280;28306;55.744;37.578;2022-09-23T06:26:01;99629.03;;;22.26;43.40
42691;BME280;28306;55.744;37.578;2022-09-23T06:28:30;99626.44;;;22.31;43.53
42691;BME280;28306;55.744;37.578;2022-09-23T06:31:01;99640.38;;;22.40;43.36
42691;BME280;28306;55.744;37.578;2022-09-23T06:33:30;99636.34;;;22.42;43.18
42691;BME280;28306;55.744;37.578;2022-09-23T06:35:57;99644.72;;;22.41;43.35
42691;BME280;28306;55.744;37.578;2022-09-23T06:38:24;99670.59;;;22.48;43.35
42691;BME280;28306;55.744;37.578;2022-09-23T06:40:51;99667.88;;;22.48;43.25
42691;BME280;28306;55.744;37.578;2022-09-23T06:43:17;99642.50;;;22.38;43.22
42691;BME280;28306;55.744;37.578;2022-09-23T06:45:43;99648.34;;;22.46;43.20
42691;BME280;28306;55.744;37.578;2022-09-23T06:48:09;99637.75;;;22.45;43.36
42691;BME280;28306;55.744;37.578;2022-09-23T06:50:35;99649.66;;;22.44;43.23
42691;BME280;28306;55.744;37.578;2022-09-23T06:53:01;99648.09;;;22.48;43.36
42691;BME280;28306;55.744;37.578;2022-09-23T06:55:27;99645.94;;;22.50;43.33
42691;BME280;28306;55.744;37.578;2022-09-23T06:57:56;99643.50;;;22.48;43.34
42691;BME280;28306;55.744;37.578;2022-09-23T07:00:23;99643.50;;;22.48;43.00
42691;BME280;28306;55.744;37.578;2022-09-23T07:02:49;99655.50;;;22.53;43.14
42691;BME280;28306;55.744;37.578;2022-09-23T07:05:14;99642.50;;;22.55;43.16
42691;BME280;28306;55.744;37.578;2022-09-23T07:07:43;99637.88;;;22.55;43.13
42691;BME280;28306;55.744;37.578;2022-09-23T07:10:10;99637.06;;;22.55;43.26
42691;BME280;28306;55.744;37.578;2022-09-23T07:12:36;99645.75;;;22.57;43.09
42691;BME280;28306;55.744;37.578;2022-09-23T07:15:02;99646.59;;;22.57;43.10
42691;BME280;28306;55.744;37.578;2022-09-23T07:17:28;99643.06;;;22.57;43.17
42691;BME280;28306;55.744;37.578;2022-09-23T07:19:54;99636.50;;;22.53;43.03
42691;BME280;28306;55.744;37.578;2022-09-23T07:22:21;99631.50;;;22.44;43.22
42691;BME280;28306;55.744;37.578;2022-09-23T07:24:47;99647.66;;;22.56;43.17
42691;BME280;28306;55.744;37.578;2022-09-23T07:27:13;99644.97;;;22.56;42.92
42691;BME280;28306;55.744;37.578;2022-09-23T07:29:42;99653.66;;;22.58;43.09
42691;BME280;28306;55.744;37.578;2022-09-23T07:32:08;99650.94;;;22.58;42.96
42691;BME280;28306;55.744;37.578;2022-09-23T07:34:34;99639.03;;;22.59;43.01
42691;BME280;28306;55.744;37.578;2022-09-23T07:37:01;99640.19;;;22.63;43.07
42691;BME280;28306;55.744;37.578;2022-09-23T07:39:27;99647.81;;;22.66;42.97
42691;BME280;28306;55.744;37.578;2022-09-23T07:41:53;99650.84;;;22.70;42.94
42691;BME280;28306;55.744;37.578;2022-09-23T07:44:19;99645.44;;;22.70;43.03
42691;BME280;28306;55.744;37.578;2022-09-23T07:46:47;99650.59;;;22.72;43.07
42691;BME280;28306;55.744;37.578;2022-09-23T07:49:14;99632.88;;;22.64;42.88
42691;BME280;28306;55.744;37.578;2022-09-23T07:51:40;99639.50;;;22.73;42.91
42691;BME280;28306;55.744;37.578;2022-09-23T07:54:13;99654.44;;;22.76;42.91
42691;BME280;28306;55.744;37.578;2022-09-23T07:56:40;99656.09;;;22.77;43.05
42691;BME280;28306;55.744;37.578;2022-09-23T07:59:07;99646.03;;;22.77;42.95
42691;BME280;28306;55.744;37.578;2022-09-23T08:01:37;99639.00;;;22.76;42.85
42691;BME280;28306;55.744;37.578;2022-09-23T08:04:11;99640.38;;;22.79;42.95
42691;BME280;28306;55.744;37.578;2022-09-23T08:06:41;99636.34;;;22.81;43.10
42691;BME280;28306;55.744;37.578;2022-09-23T08:09:07;99644.47;;;22.81;43.08
42691;BME280;28306;55.744;37.578;2022-09-23T08:11:33;99651.31;;;22.84;42.92
42691;BME280;28306;55.744;37.578;2022-09-23T08:14:00;99649.97;;;22.86;42.94
42691;BME280;28306;55.744;37.578;2022-09-23T08:16:26;99622.13;;;22.74;42.77
42691;BME280;28306;55.744;37.578;2022-09-23T08:18:51;99627.97;;;22.83;42.82
42691;BME280;28306;55.744;37.578;2022-09-23T08:21:21;99632.88;;;22.86;42.98
42691;BME280;28306;55.744;37.578;2022-09-23T08:23:46;99625.53;;;22.86;42.82
42691;BME280;28306;55.744;37.578;2022-09-23T08:26:12;99617.41;;;22.86;43.00
42691;BME280;28306;55.744;37.578;2022-09-23T08:28:38;99622.34;;;22.90;42.96
42691;BME280;28306;55.744;37.578;2022-09-23T08:31:04;99626.94;;;22.89;43.03
42691;BME280;28306;55.744;37.578;2022-09-23T08:33:29;99625.88;;;22.90;43.06
42691;BME280;28306;55.744;37.578;2022-09-23T08:36:00;99631.06;;;22.92;42.86
42691;BME280;28306;55.744;37.578;2022-09-23T08:38:26;99616.09;;;22.89;42.70
42691;BME280;28306;55.744;37.578;2022-09-23T08:41:00;99628.16;;;22.98;42.83
42691;BME280;28306;55.744;37.578;2022-09-23T08:43:31;99637.69;;;23.01;42.78
42691;BME280;28306;55.744;37.578;2022-09-23T08:46:01;99638.81;;;23.05;42.68
42691;BME280;28306;55.744;37.578;2022-09-23T08:51:00;99617.66;;;23.07;42.74
42691;BME280;28306;55.744;37.578;2022-09-23T08:53:29;99614.31;;;23.00;42.43
42691;BME280;28306;55.744;37.578;2022-09-23T08:55:58;99632.31;;;23.06;42.72
42691;BME280;28306;55.744;37.578;2022-09-23T09:01:23;99643.97;;;23.07;42.80
42691;BME280;28306;55.744;37.578;2022-09-23T09:03:53;99646.00;;;22.94;42.78
42691;BME280;28306;55.744;37.578;2022-09-23T09:06:40;99663.22;;;23.05;42.88
42691;BME280;28306;55.744;37.578;2022-09-23T09:17:04;99637.03;;;22.94;42.83
42691;BME280;28306;55.744;37.578;2022-09-23T09:19:41;99623.78;;;22.97;42.94
42691;BME280;28306;55.744;37.578;2022-09-23T09:22:18;99612.94;;;22.97;42.80
42691;BME280;28306;55.744;37.578;2022-09-23T09:24:47;99601.28;;;22.97;42.80
42691;BME280;28306;55.744;37.578;2022-09-23T09:27:13;99619.81;;;23.05;42.90
42691;BME280;28306;55.744;37.578;2022-09-23T09:29:45;99614.47;;;23.10;42.72
42691;BME280;28306;55.744;37.578;2022-09-23T09:32:28;99610.19;;;23.14;42.65
42691;BME280;28306;55.744;37.578;2022-09-23T09:35:06;99593.38;;;23.17;42.49
42691;BME280;28306;55.744;37.578;2022-09-23T09:37:45;99578.16;;;23.16;42.65
42691;BME280;28306;55.744;37.578;2022-09-23T09:40:13;99588.00;;;23.23;42.57
42691;BME280;28306;55.744;37.578;2022-09-23T09:42:44;99582.06;;;23.26;42.38
42691;BME280;28306;55.744;37.578;2022-09-23T09:50:40;99596.78;;;23.30;42.03
42691;BME280;28306;55.744;37.578;2022-09-23T09:55:41;99601.19;;;23.36;41.76
42691;BME280;28306;55.744;37.578;2022-09-23T09:58:11;99578.03;;;23.28;42.03
42691;BME280;28306;55.744;37.578;2022-09-23T10:00:44;99593.03;;;23.36;41.80
42691;BME280;28306;55.744;37.578;2022-09-23T10:08:33;99597.13;;;23.38;41.97
42691;BME280;28306;55.744;37.578;2022-09-23T10:11:17;99584.13;;;23.41;41.84
42691;BME280;28306;55.744;37.578;2022-09-23T10:14:12;99587.38;;;23.43;41.98
42691;BME280;28306;55.744;37.578;2022-09-23T10:16:38;99592.22;;;23.35;41.91
42691;BME280;28306;55.744;37.578;2022-09-23T10:19:20;99593.03;;;23.36;42.05
42691;BME280;28306;55.744;37.578;2022-09-23T10:21:51;99592.66;;;23.27;42.04
42691;BME280;28306;55.744;37.578;2022-09-23T10:24:21;99550.84;;;23.01;42.16
42691;BME280;28306;55.744;37.578;2022-09-23T10:27:00;99600.28;;;23.30;42.09
42691;BME280;28306;55.744;37.578;2022-09-23T10:29:31;99596.72;;;23.25;42.20
42691;BME280;28306;55.744;37.578;2022-09-23T10:35:29;99610.56;;;23.23;42.57
42691;BME280;28306;55.744;37.578;2022-09-23T10:37:55;99605.38;;;23.21;42.27
42691;BME280;28306;55.744;37.578;2022-09-23T10:40:40;99605.38;;;23.21;42.48
42691;BME280;28306;55.744;37.578;2022-09-23T10:47:02;99589.09;;;23.21;42.37
42691;BME280;28306;55.744;37.578;2022-09-23T10:52:42;99578.75;;;23.18;42.38
42691;BME280;28306;55.744;37.578;2022-09-23T11:15:25;99555.59;;;23.38;42.03
42691;BME280;28306;55.744;37.578;2022-09-23T11:23:27;99534.13;;;23.36;42.14
42691;BME280;28306;55.744;37.578;2022-09-23T11:36:39;99533.47;;;23.24;42.24
42691;BME280;28306;55.744;37.578;2022-09-23T11:39:18;99519.97;;;23.07;42.22
42691;BME280;28306;55.744;37.578;2022-09-23T11:41:46;99536.16;;;23.24;42.17
42691;BME280;28306;55.744;37.578;2022-09-23T11:44:14;99527.50;;;23.27;42.27
42691;BME280;28306;55.744;37.578;2022-09-23T11:46:58;99532.75;;;23.34;42.13
42691;BME280;28306;55.744;37.578;2022-09-23T11:50:08;99516.22;;;23.35;42.11
42691;BME280;28306;55.744;37.578;2022-09-23T11:52:44;99522.47;;;23.41;42.02
42691;BME280;28306;55.744;37.578;2022-09-23T11:55:14;99532.28;;;23.42;41.92
42691;BME280;28306;55.744;37.578;2022-09-23T11:57:42;99527.66;;;23.43;42.11
42691;BME280;28306;55.744;37.578;2022-09-23T12:00:20;99536.06;;;23.41;42.04
42691;BME280;28306;55.744;37.578;2022-09-23T12:05:28;99543.34;;;23.35;42.15
42691;BME280;28306;55.744;37.578;2022-09-23T12:08:09;99520.81;;;23.35;42.05
42691;BME280;28306;55.744;37.578;2022-09-23T12:10:43;99512.19;;;23.43;42.11
42691;BME280;28306;55.744;37.578;2022-09-23T12:13:17;99513.56;;;23.46;42.13
42691;BME280;28306;55.744;37.578;2022-09-23T12:21:06;99533.97;;;23.48;42.00
42691;BME280;28306;55.744;37.578;2022-09-23T12:24:10;99525.59;;;23.55;41.96
42691;BME280;28306;55.744;37.578;2022-09-23T12:26:41;99525.22;;;23.46;42.12
42691;BME280;28306;55.744;37.578;2022-09-23T12:29:12;99528.28;;;23.50;41.91
42691;BME280;28306;55.744;37.578;2022-09-23T12:31:40;99522.22;;;23.43;41.93
42691;BME280;28306;55.744;37.578;2022-09-23T12:37:03;99516.81;;;23.43;42.30
42691;BME280;28306;55.744;37.578;2022-09-23T12:39:32;99518.66;;;23.37;42.33
42691;BME280;28306;55.744;37.578;2022-09-23T12:42:02;99522.44;;;23.36;42.11
42691;BME280;28306;55.744;37.578;2022-09-23T12:49:38;99481.69;;;23.31;42.33
42691;BME280;28306;55.744;37.578;2022-09-23T12:52:22;99485.50;;;23.35;42.27
42691;BME280;28306;55.744;37.578;2022-09-23T12:54:57;99486.34;;;23.35;42.34
42691;BME280;28306;55.744;37.578;2022-09-23T13:06:00;99492.84;;;23.34;42.35
42691;BME280;28306;55.744;37.578;2022-09-23T13:08:44;99476.81;;;23.33;42.13
42691;BME280;28306;55.744;37.578;2022-09-23T13:11:28;99478.47;;;23.34;42.38
42691;BME280;28306;55.744;37.578;2022-09-23T13:13:59;99486.28;;;23.30;42.47
42691;BME280;28306;55.744;37.578;2022-09-23T13:16:34;99483.56;;;23.30;42.25
42691;BME280;28306;55.744;37.578;2022-09-23T13:19:05;99482.75;;;23.30;42.09
42691;BME280;28306;55.744;37.578;2022-09-23T13:27:02;99475.41;;;23.25;42.13
42691;BME280;28306;55.744;37.578;2022-09-23T13:29:36;99481.69;;;23.31;42.17
42691;BME280;28306;55.744;37.578;2022-09-23T13:32:03;99477.34;;;23.30;42.26
42691;BME280;28306;55.744;37.578;2022-09-23T13:34:32;99477.03;;;23.26;42.33
42691;BME280;28306;55.744;37.578;2022-09-23T13:37:20;99480.59;;;23.32;42.17
42691;BME280;28306;55.744;37.578;2022-09-23T13:39:46;99477.34;;;23.30;42.02
42691;BME280;28306;55.744;37.578;2022-09-23T13:42:22;99474.06;;;23.28;42.20
42691;BME280;28306;55.744;37.578;2022-09-23T13:44:53;99475.94;;;23.27;42.13
42691;BME280;28306;55.744;37.578;2022-09-23T13:47:24;99471.34;;;23.28;42.23
42691;BME280;28306;55.744;37.578;2022-09-23T13:49:52;99469.72;;;23.27;42.16
42691;BME280;28306;55.744;37.578;2022-09-23T13:52:26;99470.25;;;23.29;42.13
42691;BME280;28306;55.744;37.578;2022-09-23T13:54:54;99469.16;;;23.25;42.31
42691;BME280;28306;55.744;37.578;2022-09-23T14:00:16;99453.38;;;23.21;42.30
42691;BME280;28306;55.744;37.578;2022-09-23T14:02:42;99463.47;;;23.26;42.17
42691;BME280;28306;55.744;37.578;2022-09-23T14:05:32;99473.81;;;23.29;42.12
42691;BME280;28306;55.744;37.578;2022-09-23T14:07:59;99461.00;;;23.25;42.32
42691;BME280;28306;55.744;37.578;2022-09-23T14:10:25;99461.28;;;23.23;42.23
42691;BME280;28306;55.744;37.578;2022-09-23T14:12:53;99457.13;;;23.15;42.25
42691;BME280;28306;55.744;37.578;2022-09-23T14:15:20;99460.94;;;23.19;42.32
42691;BME280;28306;55.744;37.578;2022-09-23T14:17:48;99456.63;;;23.18;42.42
42691;BME280;28306;55.744;37.578;2022-09-23T14:20:18;99452.78;;;23.14;42.35
42691;BME280;28306;55.744;37.578;2022-09-23T14:22:45;99438.56;;;23.07;42.58
42691;BME280;28306;55.744;37.578;2022-09-23T14:25:12;99438.06;;;23.10;42.30
42691;BME280;28306;55.744;37.578;2022-09-23T14:27:40;99440.22;;;23.08;42.53
42691;BME280;28306;55.744;37.578;2022-09-23T14:30:16;99431.78;;;23.04;42.60
42691;BME280;28306;55.744;37.578;2022-09-23T14:32:43;99435.84;;;23.07;42.66
42691;BME280;28306;55.744;37.578;2022-09-23T14:37:50;99446.66;;;23.02;42.84
42691;BME280;28306;55.744;37.578;2022-09-23T14:40:48;99438.78;;;23.00;42.57
42691;BME280;28306;55.744;37.578;2022-09-23T14:45:51;99447.44;;;22.97;42.78
42691;BME280;28306;55.744;37.578;2022-09-23T14:48:27;99434.13;;;22.96;42.87
42691;BME280;28306;55.744;37.578;2022-09-23T14:50:57;99439.00;;;22.94;42.75
42691;BME280;28306;55.744;37.578;2022-09-23T14:53:40;99428.94;;;22.94;42.91
42691;BME280;28306;55.744;37.578;2022-09-23T14:56:13;99446.59;;;22.92;42.87
42691;BME280;28306;55.744;37.578;2022-09-23T14:58:47;99437.34;;;22.93;42.91
42691;BME280;28306;55.744;37.578;2022-09-23T15:01:35;99426.50;;;22.93;42.95
42691;BME280;28306;55.744;37.578;2022-09-23T15:06:57;99419.13;;;22.88;42.85
42691;BME280;28306;55.744;37.578;2022-09-23T15:09:26;99416.94;;;22.85;43.07
42691;BME280;28306;55.744;37.578;2022-09-23T15:11:59;99410.16;;;22.82;42.68
42691;BME280;28306;55.744;37.578;2022-09-23T15:14:27;99423.38;;;22.79;43.01
42691;BME280;28306;55.744;37.578;2022-09-23T15:16:54;99409.81;;;22.79;42.89
42691;BME280;28306;55.744;37.578;2022-09-23T15:19:20;99422.03;;;22.76;42.96
42691;BME280;28306;55.744;37.578;2022-09-23T15:21:49;99423.09;;;22.75;43.27
42691;BME280;28306;55.744;37.578;2022-09-23T15:24:42;99423.63;;;22.77;43.07
42691;BME280;28306;55.744;37.578;2022-09-23T15:27:28;99423.88;;;22.76;43.39
42691;BME280;28306;55.744;37.578;2022-09-23T15:32:57;99415.38;;;22.62;43.22
42691;BME280;28306;55.744;37.578;2022-09-23T15:35:24;99424.88;;;22.64;43.31
42691;BME280;28306;55.744;37.578;2022-09-23T15:37:55;99424.31;;;22.62;43.61
42691;BME280;28306;55.744;37.578;2022-09-23T15:40:33;99425.13;;;22.63;43.60
42691;BME280;28306;55.744;37.578;2022-09-23T15:43:05;99432.16;;;22.59;43.60
42691;BME280;28306;55.744;37.578;2022-09-23T15:45:34;99429.44;;;22.59;43.39
42691;BME280;28306;55.744;37.578;2022-09-23T15:48:06;99416.66;;;22.54;43.51